sensor_id;sensor_type;location;lat;lon;timestamp;P1;durP1;ratioP1;P2;durP2;ratioP2
38332;SDS011;25748;46.670;14.272;2023-02-01T00:01:12;7.80;;;1.77;;
38332;SDS011;25748;46.670;14.272;2023-02-01T00:03:37;10.57;;;2.87;;
38332;SDS011;25748;46.670;14.272;2023-02-01T00:06:03;4.57;;;2.33;;
38332;SDS011;25748;46.670;14.272;2023-02-01T00:08:29;10.50;;;3.17;;
38332;SDS011;25748;46.670;14.272;2023-02-01T00:11:02;5.60;;;2.17;;
38332;SDS011;25748;46.670;14.272;2023-02-01T00:13:33;2.07;;;1.40;;
38332;SDS011;25748;46.670;14.272;2023-02-01T00:16:16;7.63;;;2.30;;
38332;SDS011;25748;46.670;14.272;2023-02-01T00:18:47;3.53;;;2.07;;
38332;SDS011;25748;46.670;14.272;2023-02-01T00:21:15;5.37;;;1.03;;
38332;SDS011;25748;46.670;14.272;2023-02-01T00:23:42;5.60;;;1.50;;
38332;SDS011;25748;46.670;14.272;2023-02-01T00:26:11;3.17;;;0.83;;
38332;SDS011;25748;46.670;14.272;2023-02-01T00:28:40;4.07;;;1.30;;
38332;SDS011;25748;46.670;14.272;2023-02-01T00:31:06;4.27;;;1.57;;
38332;SDS011;25748;46.670;14.272;2023-02-01T00:33:32;2.00;;;0.60;;
38332;SDS011;25748;46.670;14.272;2023-02-01T00:35:59;2.20;;;0.73;;
38332;SDS011;25748;46.670;14.272;2023-02-01T00:38:30;1.45;;;1.10;;
38332;SDS011;25748;46.670;14.272;2023-02-01T00:41:04;3.23;;;0.93;;
38332;SDS011;25748;46.670;14.272;2023-02-01T00:43:33;1.03;;;0.93;;
38332;SDS011;25748;46.670;14.272;2023-02-01T00:45:59;2.60;;;1.10;;
38332;SDS011;25748;46.670;14.272;2023-02-01T00:48:25;1.10;;;0.70;;
38332;SDS011;25748;46.670;14.272;2023-02-01T00:50:51;2.00;;;1.03;;
38332;SDS011;25748;46.670;14.272;2023-02-01T00:53:18;3.47;;;1.07;;
38332;SDS011;25748;46.670;14.272;2023-02-01T00:55:47;2.43;;;1.17;;
38332;SDS011;25748;46.670;14.272;2023-02-01T00:58:13;0.77;;;0.57;;
38332;SDS011;25748;46.670;14.272;2023-02-01T01:00:39;7.70;;;0.80;;
38332;SDS011;25748;46.670;14.272;2023-02-01T01:03:05;8.37;;;0.80;;
38332;SDS011;25748;46.670;14.272;2023-02-01T01:05:46;0.97;;;0.53;;
38332;SDS011;25748;46.670;14.272;2023-02-01T01:08:13;1.20;;;0.90;;
38332;SDS011;25748;46.670;14.272;2023-02-01T01:10:40;5.27;;;1.60;;
38332;SDS011;25748;46.670;14.272;2023-02-01T01:13:06;1.73;;;0.80;;
38332;SDS011;25748;46.670;14.272;2023-02-01T01:15:36;2.87;;;1.43;;
38332;SDS011;25748;46.670;14.272;2023-02-01T01:18:05;2.43;;;1.33;;
38332;SDS011;25748;46.670;14.272;2023-02-01T01:20:31;2.60;;;0.93;;
38332;SDS011;25748;46.670;14.272;2023-02-01T01:22:59;2.10;;;1.03;;
38332;SDS011;25748;46.670;14.272;2023-02-01T01:25:24;3.23;;;1.00;;
38332;SDS011;25748;46.670;14.272;2023-02-01T01:27:50;2.50;;;1.53;;
38332;SDS011;25748;46.670;14.272;2023-02-01T01:30:16;3.17;;;1.60;;
38332;SDS011;25748;46.670;14.272;2023-02-01T01:32:42;2.53;;;1.00;;
38332;SDS011;25748;46.670;14.272;2023-02-01T01:35:08;2.33;;;1.27;;
38332;SDS011;25748;46.670;14.272;2023-02-01T01:37:34;7.43;;;2.23;;
38332;SDS011;25748;46.670;14.272;2023-02-01T01:40:01;2.40;;;1.43;;
38332;SDS011;25748;46.670;14.272;2023-02-01T01:42:30;3.07;;;1.57;;
38332;SDS011;25748;46.670;14.272;2023-02-01T01:47:42;5.43;;;1.20;;
38332;SDS011;25748;46.670;14.272;2023-02-01T01:50:13;4.90;;;2.17;;
38332;SDS011;25748;46.670;14.272;2023-02-01T01:52:43;1.63;;;1.48;;
38332;SDS011;25748;46.670;14.272;2023-02-01T01:55:11;2.93;;;1.87;;
38332;SDS011;25748;46.670;14.272;2023-02-01T01:57:40;1.53;;;1.20;;
38332;SDS011;25748;46.670;14.272;2023-02-01T02:00:11;2.60;;;0.90;;
38332;SDS011;25748;46.670;14.272;2023-02-01T02:02:40;2.33;;;1.30;;
38332;SDS011;25748;46.670;14.272;2023-02-01T02:05:08;4.93;;;1.80;;
38332;SDS011;25748;46.670;14.272;2023-02-01T02:07:39;1.70;;;1.07;;
38332;SDS011;25748;46.670;14.272;2023-02-01T02:10:09;5.93;;;1.47;;
38332;SDS011;25748;46.670;14.272;2023-02-01T02:12:40;2.87;;;2.07;;
38332;SDS011;25748;46.670;14.272;2023-02-01T02:15:07;1.85;;;1.10;;
38332;SDS011;25748;46.670;14.272;2023-02-01T02:17:36;5.40;;;2.00;;
38332;SDS011;25748;46.670;14.272;2023-02-01T02:20:26;3.50;;;1.63;;
38332;SDS011;25748;46.670;14.272;2023-02-01T02:40:11;0.90;;;0.50;;
38332;SDS011;25748;46.670;14.272;2023-02-01T02:42:50;1.30;;;1.00;;
38332;SDS011;25748;46.670;14.272;2023-02-01T02:45:44;0.83;;;0.47;;
38332;SDS011;25748;46.670;14.272;2023-02-01T02:48:51;2.03;;;1.27;;
38332;SDS011;25748;46.670;14.272;2023-02-01T02:51:28;3.87;;;1.50;;
38332;SDS011;25748;46.670;14.272;2023-02-01T02:54:24;2.50;;;1.30;;
38332;SDS011;25748;46.670;14.272;2023-02-01T02:57:18;8.40;;;1.27;;
38332;SDS011;25748;46.670;14.272;2023-02-01T03:00:04;8.00;;;2.87;;
38332;SDS011;25748;46.670;14.272;2023-02-01T03:02:52;4.47;;;2.47;;
38332;SDS011;25748;46.670;14.272;2023-02-01T03:05:39;3.40;;;1.97;;
38332;SDS011;25748;46.670;14.272;2023-02-01T03:08:14;5.83;;;1.60;;
38332;SDS011;25748;46.670;14.272;2023-02-01T03:13:33;3.77;;;1.33;;
38332;SDS011;25748;46.670;14.272;2023-02-01T03:19:06;3.10;;;0.90;;
38332;SDS011;25748;46.670;14.272;2023-02-01T03:21:40;3.47;;;1.50;;
38332;SDS011;25748;46.670;14.272;2023-02-01T03:24:20;6.03;;;1.50;;
38332;SDS011;25748;46.670;14.272;2023-02-01T03:26:58;1.30;;;0.80;;
38332;SDS011;25748;46.670;14.272;2023-02-01T03:32:09;5.07;;;1.40;;
38332;SDS011;25748;46.670;14.272;2023-02-01T03:34:35;1.73;;;1.17;;
38332;SDS011;25748;46.670;14.272;2023-02-01T03:37:02;3.07;;;1.70;;
38332;SDS011;25748;46.670;14.272;2023-02-01T03:39:36;3.90;;;1.57;;
38332;SDS011;25748;46.670;14.272;2023-02-01T03:42:14;3.17;;;1.15;;
38332;SDS011;25748;46.670;14.272;2023-02-01T03:44:58;3.20;;;1.27;;
38332;SDS011;25748;46.670;14.272;2023-02-01T03:47:32;5.13;;;1.67;;
38332;SDS011;25748;46.670;14.272;2023-02-01T03:50:07;2.40;;;1.03;;
38332;SDS011;25748;46.670;14.272;2023-02-01T03:52:43;5.53;;;1.23;;
38332;SDS011;25748;46.670;14.272;2023-02-01T03:55:14;3.07;;;1.70;;
38332;SDS011;25748;46.670;14.272;2023-02-01T03:57:43;0.70;;;0.70;;
38332;SDS011;25748;46.670;14.272;2023-02-01T04:02:44;1.95;;;1.23;;
38332;SDS011;25748;46.670;14.272;2023-02-01T04:05:10;5.67;;;1.00;;
38332;SDS011;25748;46.670;14.272;2023-02-01T04:07:36;2.63;;;1.10;;
38332;SDS011;25748;46.670;14.272;2023-02-01T04:10:02;0.90;;;0.67;;
38332;SDS011;25748;46.670;14.272;2023-02-01T04:12:28;3.13;;;1.50;;
38332;SDS011;25748;46.670;14.272;2023-02-01T04:14:54;2.70;;;0.97;;
38332;SDS011;25748;46.670;14.272;2023-02-01T04:17:20;1.60;;;0.70;;
38332;SDS011;25748;46.670;14.272;2023-02-01T04:19:45;3.60;;;1.17;;
38332;SDS011;25748;46.670;14.272;2023-02-01T04:22:11;4.37;;;1.13;;
38332;SDS011;25748;46.670;14.272;2023-02-01T04:24:37;2.63;;;1.07;;
38332;SDS011;25748;46.670;14.272;2023-02-01T04:27:03;4.03;;;1.73;;
38332;SDS011;25748;46.670;14.272;2023-02-01T04:29:29;4.10;;;1.57;;
38332;SDS011;25748;46.670;14.272;2023-02-01T04:31:54;2.80;;;1.30;;
38332;SDS011;25748;46.670;14.272;2023-02-01T04:34:20;4.07;;;1.33;;
38332;SDS011;25748;46.670;14.272;2023-02-01T04:36:47;2.50;;;1.30;;
38332;SDS011;25748;46.670;14.272;2023-02-01T04:39:13;2.27;;;0.60;;
38332;SDS011;25748;46.670;14.272;2023-02-01T04:41:39;4.90;;;0.80;;
38332;SDS011;25748;46.670;14.272;2023-02-01T04:44:05;0.73;;;0.67;;
38332;SDS011;25748;46.670;14.272;2023-02-01T04:46:30;4.53;;;1.03;;
38332;SDS011;25748;46.670;14.272;2023-02-01T04:48:56;1.40;;;1.30;;
38332;SDS011;25748;46.670;14.272;2023-02-01T04:51:22;3.63;;;0.87;;
38332;SDS011;25748;46.670;14.272;2023-02-01T04:53:47;3.23;;;1.17;;
38332;SDS011;25748;46.670;14.272;2023-02-01T04:56:13;4.63;;;1.00;;
38332;SDS011;25748;46.670;14.272;2023-02-01T04:58:39;9.53;;;1.27;;
38332;SDS011;25748;46.670;14.272;2023-02-01T05:01:05;2.60;;;1.53;;
38332;SDS011;25748;46.670;14.272;2023-02-01T05:03:32;1.53;;;0.90;;
38332;SDS011;25748;46.670;14.272;2023-02-01T05:05:58;2.47;;;0.83;;
38332;SDS011;25748;46.670;14.272;2023-02-01T05:08:24;0.63;;;0.63;;
38332;SDS011;25748;46.670;14.272;2023-02-01T05:10:51;5.30;;;1.50;;
38332;SDS011;25748;46.670;14.272;2023-02-01T05:13:18;1.90;;;1.10;;
38332;SDS011;25748;46.670;14.272;2023-02-01T05:16:02;6.97;;;1.93;;
38332;SDS011;25748;46.670;14.272;2023-02-01T05:18:27;3.07;;;0.97;;
38332;SDS011;25748;46.670;14.272;2023-02-01T05:20:53;4.93;;;1.50;;
38332;SDS011;25748;46.670;14.272;2023-02-01T05:23:19;2.83;;;1.10;;
38332;SDS011;25748;46.670;14.272;2023-02-01T05:25:45;2.90;;;1.17;;
38332;SDS011;25748;46.670;14.272;2023-02-01T05:28:10;4.20;;;1.37;;
38332;SDS011;25748;46.670;14.272;2023-02-01T05:30:36;3.07;;;1.43;;
38332;SDS011;25748;46.670;14.272;2023-02-01T05:33:02;1.57;;;1.30;;
38332;SDS011;25748;46.670;14.272;2023-02-01T05:35:29;2.40;;;1.20;;
38332;SDS011;25748;46.670;14.272;2023-02-01T05:37:54;2.07;;;1.40;;
38332;SDS011;25748;46.670;14.272;2023-02-01T05:40:20;5.23;;;2.07;;
38332;SDS011;25748;46.670;14.272;2023-02-01T05:42:46;21.43;;;3.27;;
38332;SDS011;25748;46.670;14.272;2023-02-01T05:45:12;4.63;;;1.43;;
38332;SDS011;25748;46.670;14.272;2023-02-01T05:47:37;3.17;;;1.50;;
38332;SDS011;25748;46.670;14.272;2023-02-01T05:50:03;11.23;;;2.90;;
38332;SDS011;25748;46.670;14.272;2023-02-01T05:52:30;9.73;;;4.43;;
38332;SDS011;25748;46.670;14.272;2023-02-01T05:54:56;5.53;;;2.47;;
38332;SDS011;25748;46.670;14.272;2023-02-01T05:57:21;2.93;;;1.47;;
38332;SDS011;25748;46.670;14.272;2023-02-01T05:59:47;2.43;;;1.33;;
38332;SDS011;25748;46.670;14.272;2023-02-01T06:02:13;7.57;;;1.57;;
38332;SDS011;25748;46.670;14.272;2023-02-01T06:04:40;7.33;;;1.73;;
38332;SDS011;25748;46.670;14.272;2023-02-01T06:07:06;8.93;;;1.37;;
38332;SDS011;25748;46.670;14.272;2023-02-01T06:09:32;4.50;;;1.70;;
38332;SDS011;25748;46.670;14.272;2023-02-01T06:12:02;2.27;;;1.40;;
38332;SDS011;25748;46.670;14.272;2023-02-01T06:14:29;3.00;;;1.30;;
38332;SDS011;25748;46.670;14.272;2023-02-01T06:16:54;2.27;;;1.07;;
38332;SDS011;25748;46.670;14.272;2023-02-01T06:19:21;3.43;;;1.40;;
38332;SDS011;25748;46.670;14.272;2023-02-01T06:21:47;3.40;;;1.93;;
38332;SDS011;25748;46.670;14.272;2023-02-01T06:24:13;2.63;;;1.93;;
38332;SDS011;25748;46.670;14.272;2023-02-01T06:26:39;3.57;;;1.83;;
38332;SDS011;25748;46.670;14.272;2023-02-01T06:29:06;3.07;;;2.00;;
38332;SDS011;25748;46.670;14.272;2023-02-01T06:31:32;2.33;;;1.73;;
38332;SDS011;25748;46.670;14.272;2023-02-01T06:33:58;3.77;;;1.80;;
38332;SDS011;25748;46.670;14.272;2023-02-01T06:36:24;1.97;;;1.50;;
38332;SDS011;25748;46.670;14.272;2023-02-01T06:38:50;3.43;;;1.33;;
38332;SDS011;25748;46.670;14.272;2023-02-01T06:41:16;1.10;;;1.00;;
38332;SDS011;25748;46.670;14.272;2023-02-01T06:43:41;9.13;;;1.33;;
38332;SDS011;25748;46.670;14.272;2023-02-01T06:46:09;3.10;;;0.80;;
38332;SDS011;25748;46.670;14.272;2023-02-01T06:48:37;1.63;;;0.83;;
38332;SDS011;25748;46.670;14.272;2023-02-01T06:51:03;2.70;;;1.67;;
38332;SDS011;25748;46.670;14.272;2023-02-01T06:53:29;6.03;;;2.70;;
38332;SDS011;25748;46.670;14.272;2023-02-01T06:55:58;3.87;;;1.43;;
38332;SDS011;25748;46.670;14.272;2023-02-01T06:58:32;2.73;;;1.73;;
38332;SDS011;25748;46.670;14.272;2023-02-01T07:01:03;11.40;;;1.37;;
38332;SDS011;25748;46.670;14.272;2023-02-01T07:03:30;3.03;;;1.60;;
38332;SDS011;25748;46.670;14.272;2023-02-01T07:05:56;3.83;;;1.87;;
38332;SDS011;25748;46.670;14.272;2023-02-01T07:08:24;5.23;;;1.47;;
38332;SDS011;25748;46.670;14.272;2023-02-01T07:10:50;4.93;;;2.50;;
38332;SDS011;25748;46.670;14.272;2023-02-01T07:13:15;4.13;;;2.10;;
38332;SDS011;25748;46.670;14.272;2023-02-01T07:15:41;6.70;;;1.93;;
38332;SDS011;25748;46.670;14.272;2023-02-01T07:18:07;3.80;;;2.60;;
38332;SDS011;25748;46.670;14.272;2023-02-01T07:20:32;7.50;;;3.27;;
38332;SDS011;25748;46.670;14.272;2023-02-01T07:22:58;3.97;;;2.10;;
38332;SDS011;25748;46.670;14.272;2023-02-01T07:25:24;11.93;;;2.90;;
38332;SDS011;25748;46.670;14.272;2023-02-01T07:27:49;6.47;;;2.77;;
38332;SDS011;25748;46.670;14.272;2023-02-01T07:30:15;5.40;;;2.40;;
38332;SDS011;25748;46.670;14.272;2023-02-01T07:32:41;6.43;;;2.97;;
38332;SDS011;25748;46.670;14.272;2023-02-01T07:35:07;3.20;;;2.47;;
38332;SDS011;25748;46.670;14.272;2023-02-01T07:37:32;5.23;;;3.23;;
38332;SDS011;25748;46.670;14.272;2023-02-01T07:39:58;4.23;;;3.13;;
38332;SDS011;25748;46.670;14.272;2023-02-01T07:42:24;17.93;;;3.40;;
38332;SDS011;25748;46.670;14.272;2023-02-01T07:44:49;7.73;;;2.90;;
38332;SDS011;25748;46.670;14.272;2023-02-01T07:47:15;9.97;;;4.10;;
38332;SDS011;25748;46.670;14.272;2023-02-01T07:49:40;5.73;;;2.83;;
38332;SDS011;25748;46.670;14.272;2023-02-01T07:52:06;6.57;;;2.73;;
38332;SDS011;25748;46.670;14.272;2023-02-01T07:54:32;6.50;;;2.80;;
38332;SDS011;25748;46.670;14.272;2023-02-01T07:56:57;5.13;;;2.07;;
38332;SDS011;25748;46.670;14.272;2023-02-01T07:59:23;4.13;;;2.27;;
38332;SDS011;25748;46.670;14.272;2023-02-01T08:01:51;7.37;;;3.13;;
38332;SDS011;25748;46.670;14.272;2023-02-01T08:04:17;4.17;;;2.23;;
38332;SDS011;25748;46.670;14.272;2023-02-01T08:06:43;4.40;;;2.37;;
38332;SDS011;25748;46.670;14.272;2023-02-01T08:09:08;4.03;;;2.23;;
38332;SDS011;25748;46.670;14.272;2023-02-01T08:11:35;15.47;;;4.23;;
38332;SDS011;25748;46.670;14.272;2023-02-01T08:14:02;4.67;;;2.67;;
38332;SDS011;25748;46.670;14.272;2023-02-01T08:16:28;8.80;;;2.90;;
38332;SDS011;25748;46.670;14.272;2023-02-01T08:18:54;9.47;;;3.30;;
38332;SDS011;25748;46.670;14.272;2023-02-01T08:21:21;7.80;;;2.57;;
38332;SDS011;25748;46.670;14.272;2023-02-01T08:23:53;15.57;;;2.60;;
38332;SDS011;25748;46.670;14.272;2023-02-01T08:26:22;18.40;;;2.47;;
38332;SDS011;25748;46.670;14.272;2023-02-01T08:28:52;8.37;;;2.27;;
38332;SDS011;25748;46.670;14.272;2023-02-01T08:31:20;6.37;;;2.10;;
38332;SDS011;25748;46.670;14.272;2023-02-01T08:33:48;4.03;;;2.00;;
38332;SDS011;25748;46.670;14.272;2023-02-01T08:36:15;5.03;;;2.20;;
38332;SDS011;25748;46.670;14.272;2023-02-01T08:38:41;7.77;;;2.27;;
38332;SDS011;25748;46.670;14.272;2023-02-01T08:41:08;5.73;;;2.17;;
38332;SDS011;25748;46.670;14.272;2023-02-01T08:43:36;4.23;;;2.10;;
38332;SDS011;25748;46.670;14.272;2023-02-01T08:46:02;10.17;;;2.10;;
38332;SDS011;25748;46.670;14.272;2023-02-01T08:48:29;5.03;;;2.00;;
38332;SDS011;25748;46.670;14.272;2023-02-01T08:50:55;5.93;;;2.20;;
38332;SDS011;25748;46.670;14.272;2023-02-01T08:53:21;5.90;;;2.47;;
38332;SDS011;25748;46.670;14.272;2023-02-01T08:55:47;6.93;;;2.90;;
38332;SDS011;25748;46.670;14.272;2023-02-01T08:58:13;7.10;;;2.67;;
38332;SDS011;25748;46.670;14.272;2023-02-01T09:00:40;3.47;;;2.03;;
38332;SDS011;25748;46.670;14.272;2023-02-01T09:03:05;5.03;;;1.87;;
38332;SDS011;25748;46.670;14.272;2023-02-01T09:05:35;2.93;;;1.73;;
38332;SDS011;25748;46.670;14.272;2023-02-01T09:08:00;21.10;;;3.10;;
38332;SDS011;25748;46.670;14.272;2023-02-01T09:10:26;8.95;;;2.83;;
38332;SDS011;25748;46.670;14.272;2023-02-01T09:12:52;8.47;;;2.30;;
38332;SDS011;25748;46.670;14.272;2023-02-01T09:15:17;4.03;;;1.90;;
38332;SDS011;25748;46.670;14.272;2023-02-01T09:17:43;7.20;;;1.70;;
38332;SDS011;25748;46.670;14.272;2023-02-01T09:20:09;5.60;;;2.13;;
38332;SDS011;25748;46.670;14.272;2023-02-01T09:22:35;4.25;;;1.83;;
38332;SDS011;25748;46.670;14.272;2023-02-01T09:25:00;4.88;;;1.90;;
38332;SDS011;25748;46.670;14.272;2023-02-01T09:27:26;7.47;;;2.45;;
38332;SDS011;25748;46.670;14.272;2023-02-01T09:29:52;5.27;;;1.83;;
38332;SDS011;25748;46.670;14.272;2023-02-01T09:32:21;5.82;;;2.10;;
38332;SDS011;25748;46.670;14.272;2023-02-01T09:34:47;4.40;;;2.00;;
38332;SDS011;25748;46.670;14.272;2023-02-01T09:37:14;8.13;;;2.28;;
38332;SDS011;25748;46.670;14.272;2023-02-01T09:39:40;9.82;;;2.67;;
38332;SDS011;25748;46.670;14.272;2023-02-01T09:42:21;4.38;;;2.15;;
38332;SDS011;25748;46.670;14.272;2023-02-01T09:44:59;6.97;;;2.03;;
38332;SDS011;25748;46.670;14.272;2023-02-01T09:47:48;8.70;;;2.35;;
38332;SDS011;25748;46.670;14.272;2023-02-01T09:50:27;8.52;;;2.83;;
38332;SDS011;25748;46.670;14.272;2023-02-01T09:56:04;7.50;;;1.90;;
38332;SDS011;25748;46.670;14.272;2023-02-01T10:00:58;4.35;;;1.60;;
38332;SDS011;25748;46.670;14.272;2023-02-01T10:03:32;5.20;;;1.77;;
38332;SDS011;25748;46.670;14.272;2023-02-01T10:14:42;5.85;;;1.75;;
38332;SDS011;25748;46.670;14.272;2023-02-01T10:25:55;6.28;;;1.75;;
38332;SDS011;25748;46.670;14.272;2023-02-01T10:28:24;5.00;;;1.75;;
38332;SDS011;25748;46.670;14.272;2023-02-01T10:30:53;3.85;;;1.77;;
38332;SDS011;25748;46.670;14.272;2023-02-01T10:33:23;3.90;;;1.67;;
38332;SDS011;25748;46.670;14.272;2023-02-01T10:35:58;7.18;;;1.67;;
38332;SDS011;25748;46.670;14.272;2023-02-01T10:38:46;7.10;;;2.75;;
38332;SDS011;25748;46.670;14.272;2023-02-01T10:41:31;10.82;;;2.33;;
38332;SDS011;25748;46.670;14.272;2023-02-01T10:44:02;6.47;;;2.95;;
38332;SDS011;25748;46.670;14.272;2023-02-01T10:46:31;15.73;;;2.95;;
38332;SDS011;25748;46.670;14.272;2023-02-01T10:49:00;5.68;;;2.75;;
38332;SDS011;25748;46.670;14.272;2023-02-01T10:53:55;7.22;;;2.50;;
38332;SDS011;25748;46.670;14.272;2023-02-01T10:56:28;10.25;;;4.18;;
38332;SDS011;25748;46.670;14.272;2023-02-01T10:59:04;9.23;;;2.63;;
38332;SDS011;25748;46.670;14.272;2023-02-01T11:01:37;5.68;;;2.15;;
38332;SDS011;25748;46.670;14.272;2023-02-01T11:04:07;8.95;;;2.63;;
38332;SDS011;25748;46.670;14.272;2023-02-01T11:06:39;10.88;;;4.25;;
38332;SDS011;25748;46.670;14.272;2023-02-01T11:22:21;6.45;;;2.80;;
38332;SDS011;25748;46.670;14.272;2023-02-01T11:24:49;8.43;;;2.80;;
38332;SDS011;25748;46.670;14.272;2023-02-01T11:27:16;6.13;;;2.15;;
38332;SDS011;25748;46.670;14.272;2023-02-01T11:29:46;8.55;;;2.10;;
38332;SDS011;25748;46.670;14.272;2023-02-01T11:32:16;6.68;;;2.30;;
38332;SDS011;25748;46.670;14.272;2023-02-01T11:34:45;8.65;;;2.50;;
38332;SDS011;25748;46.670;14.272;2023-02-01T11:37:19;4.30;;;2.03;;
38332;SDS011;25748;46.670;14.272;2023-02-01T11:42:22;6.20;;;2.72;;
38332;SDS011;25748;46.670;14.272;2023-02-01T11:44:48;9.63;;;2.95;;
38332;SDS011;25748;46.670;14.272;2023-02-01T11:47:24;7.28;;;3.03;;
38332;SDS011;25748;46.670;14.272;2023-02-01T11:49:52;10.20;;;3.05;;
38332;SDS011;25748;46.670;14.272;2023-02-01T12:00:31;8.73;;;3.20;;
38332;SDS011;25748;46.670;14.272;2023-02-01T12:08:56;8.32;;;3.58;;
38332;SDS011;25748;46.670;14.272;2023-02-01T12:11:33;6.20;;;2.70;;
38332;SDS011;25748;46.670;14.272;2023-02-01T12:25:09;6.72;;;2.75;;
38332;SDS011;25748;46.670;14.272;2023-02-01T12:35:43;6.20;;;3.42;;
38332;SDS011;25748;46.670;14.272;2023-02-01T12:41:12;7.82;;;3.00;;
38332;SDS011;25748;46.670;14.272;2023-02-01T12:46:20;5.85;;;2.08;;
38332;SDS011;25748;46.670;14.272;2023-02-01T12:48:56;7.10;;;3.15;;
38332;SDS011;25748;46.670;14.272;2023-02-01T12:51:35;13.98;;;4.18;;
38332;SDS011;25748;46.670;14.272;2023-02-01T12:54:14;10.07;;;3.78;;
38332;SDS011;25748;46.670;14.272;2023-02-01T12:59:22;8.75;;;3.90;;
38332;SDS011;25748;46.670;14.272;2023-02-01T13:01:53;10.43;;;3.80;;
38332;SDS011;25748;46.670;14.272;2023-02-01T13:04:26;9.65;;;4.15;;
38332;SDS011;25748;46.670;14.272;2023-02-01T13:10:15;6.68;;;3.55;;
38332;SDS011;25748;46.670;14.272;2023-02-01T13:13:04;18.92;;;4.97;;
38332;SDS011;25748;46.670;14.272;2023-02-01T13:18:20;9.98;;;3.38;;
38332;SDS011;25748;46.670;14.272;2023-02-01T13:23:27;13.20;;;3.95;;
38332;SDS011;25748;46.670;14.272;2023-02-01T13:25:55;7.22;;;3.38;;
38332;SDS011;25748;46.670;14.272;2023-02-01T13:28:40;6.90;;;3.80;;
38332;SDS011;25748;46.670;14.272;2023-02-01T13:34:32;5.38;;;3.05;;
38332;SDS011;25748;46.670;14.272;2023-02-01T13:43:07;7.15;;;2.75;;
38332;SDS011;25748;46.670;14.272;2023-02-01T13:45:36;7.93;;;2.67;;
38332;SDS011;25748;46.670;14.272;2023-02-01T13:49:17;5.60;;;2.83;;
38332;SDS011;25748;46.670;14.272;2023-02-01T13:51:18;8.00;;;2.45;;
38332;SDS011;25748;46.670;14.272;2023-02-01T13:54:06;8.30;;;2.40;;
38332;SDS011;25748;46.670;14.272;2023-02-01T13:56:41;4.88;;;2.78;;
38332;SDS011;25748;46.670;14.272;2023-02-01T14:05:08;4.25;;;1.83;;
38332;SDS011;25748;46.670;14.272;2023-02-01T14:07:35;8.95;;;2.42;;
38332;SDS011;25748;46.670;14.272;2023-02-01T14:13:05;8.25;;;2.80;;
38332;SDS011;25748;46.670;14.272;2023-02-01T14:16:10;5.13;;;2.53;;
38332;SDS011;25748;46.670;14.272;2023-02-01T14:23:45;7.82;;;3.00;;
38332;SDS011;25748;46.670;14.272;2023-02-01T14:26:26;20.30;;;2.70;;
38332;SDS011;25748;46.670;14.272;2023-02-01T14:42:28;7.43;;;2.58;;
38332;SDS011;25748;46.670;14.272;2023-02-01T14:55:37;4.05;;;2.03;;
38332;SDS011;25748;46.670;14.272;2023-02-01T15:01:17;6.75;;;2.95;;
38332;SDS011;25748;46.670;14.272;2023-02-01T15:06:29;7.85;;;3.15;;
38332;SDS011;25748;46.670;14.272;2023-02-01T15:09:14;4.70;;;2.70;;
38332;SDS011;25748;46.670;14.272;2023-02-01T15:14:37;4.70;;;2.85;;
38332;SDS011;25748;46.670;14.272;2023-02-01T15:19:57;13.80;;;3.67;;
38332;SDS011;25748;46.670;14.272;2023-02-01T15:22:25;16.02;;;3.42;;
38332;SDS011;25748;46.670;14.272;2023-02-01T15:24:55;11.18;;;3.55;;
38332;SDS011;25748;46.670;14.272;2023-02-01T15:27:22;8.95;;;3.03;;
38332;SDS011;25748;46.670;14.272;2023-02-01T15:29:49;11.77;;;3.60;;
38332;SDS011;25748;46.670;14.272;2023-02-01T15:32:28;14.30;;;3.00;;
38332;SDS011;25748;46.670;14.272;2023-02-01T15:34:54;13.40;;;3.25;;
38332;SDS011;25748;46.670;14.272;2023-02-01T15:37:20;15.95;;;2.88;;
38332;SDS011;25748;46.670;14.272;2023-02-01T15:42:34;7.70;;;3.15;;
38332;SDS011;25748;46.670;14.272;2023-02-01T15:45:18;8.18;;;2.78;;
38332;SDS011;25748;46.670;14.272;2023-02-01T15:47:49;7.78;;;3.78;;
38332;SDS011;25748;46.670;14.272;2023-02-01T15:50:18;9.13;;;2.92;;
38332;SDS011;25748;46.670;14.272;2023-02-01T15:52:46;17.83;;;6.28;;
38332;SDS011;25748;46.670;14.272;2023-02-01T15:55:21;14.05;;;3.17;;
38332;SDS011;25748;46.670;14.272;2023-02-01T15:57:48;12.48;;;3.33;;
38332;SDS011;25748;46.670;14.272;2023-02-01T16:00:22;9.77;;;4.07;;
38332;SDS011;25748;46.670;14.272;2023-02-01T16:03:04;5.82;;;3.28;;
38332;SDS011;25748;46.670;14.272;2023-02-01T16:05:58;13.73;;;4.40;;
38332;SDS011;25748;46.670;14.272;2023-02-01T16:08:34;6.47;;;2.67;;
38332;SDS011;25748;46.670;14.272;2023-02-01T16:13:33;7.72;;;2.47;;
38332;SDS011;25748;46.670;14.272;2023-02-01T16:15:59;8.73;;;3.58;;
38332;SDS011;25748;46.670;14.272;2023-02-01T16:18:25;8.70;;;3.05;;
38332;SDS011;25748;46.670;14.272;2023-02-01T16:20:50;7.82;;;3.72;;
38332;SDS011;25748;46.670;14.272;2023-02-01T16:23:16;8.63;;;3.22;;
38332;SDS011;25748;46.670;14.272;2023-02-01T16:25:42;10.82;;;3.42;;
38332;SDS011;25748;46.670;14.272;2023-02-01T16:28:07;5.93;;;3.05;;
38332;SDS011;25748;46.670;14.272;2023-02-01T16:30:33;9.48;;;2.28;;
38332;SDS011;25748;46.670;14.272;2023-02-01T16:33:00;5.32;;;2.63;;
38332;SDS011;25748;46.670;14.272;2023-02-01T16:35:33;16.17;;;3.10;;
38332;SDS011;25748;46.670;14.272;2023-02-01T16:38:01;6.65;;;2.33;;
38332;SDS011;25748;46.670;14.272;2023-02-01T16:40:33;7.28;;;3.00;;
38332;SDS011;25748;46.670;14.272;2023-02-01T16:42:59;10.90;;;2.58;;
38332;SDS011;25748;46.670;14.272;2023-02-01T16:45:25;19.35;;;3.45;;
38332;SDS011;25748;46.670;14.272;2023-02-01T16:47:51;15.98;;;3.20;;
38332;SDS011;25748;46.670;14.272;2023-02-01T16:50:20;15.88;;;3.78;;
38332;SDS011;25748;46.670;14.272;2023-02-01T16:52:48;12.48;;;4.20;;
38332;SDS011;25748;46.670;14.272;2023-02-01T16:55:15;9.05;;;3.03;;
38332;SDS011;25748;46.670;14.272;2023-02-01T16:57:52;8.85;;;3.40;;
38332;SDS011;25748;46.670;14.272;2023-02-01T17:00:25;9.15;;;2.67;;
38332;SDS011;25748;46.670;14.272;2023-02-01T17:02:56;10.23;;;3.22;;
38332;SDS011;25748;46.670;14.272;2023-02-01T17:05:33;4.15;;;1.83;;
38332;SDS011;25748;46.670;14.272;2023-02-01T17:11:13;7.07;;;3.22;;
38332;SDS011;25748;46.670;14.272;2023-02-01T17:13:49;14.60;;;4.35;;
38332;SDS011;25748;46.670;14.272;2023-02-01T17:16:51;12.55;;;5.28;;
38332;SDS011;25748;46.670;14.272;2023-02-01T17:19:28;9.73;;;3.65;;
38332;SDS011;25748;46.670;14.272;2023-02-01T17:24:34;9.50;;;3.67;;
38332;SDS011;25748;46.670;14.272;2023-02-01T17:27:04;7.22;;;3.83;;
38332;SDS011;25748;46.670;14.272;2023-02-01T17:29:30;7.03;;;2.90;;
38332;SDS011;25748;46.670;14.272;2023-02-01T17:32:03;5.28;;;1.75;;
38332;SDS011;25748;46.670;14.272;2023-02-01T17:34:30;8.60;;;2.53;;
38332;SDS011;25748;46.670;14.272;2023-02-01T17:36:56;8.65;;;2.70;;
38332;SDS011;25748;46.670;14.272;2023-02-01T17:39:22;4.72;;;2.20;;
38332;SDS011;25748;46.670;14.272;2023-02-01T17:42:10;4.90;;;2.20;;
38332;SDS011;25748;46.670;14.272;2023-02-01T17:44:37;8.20;;;2.73;;
38332;SDS011;25748;46.670;14.272;2023-02-01T17:47:03;4.35;;;2.03;;
38332;SDS011;25748;46.670;14.272;2023-02-01T17:49:29;5.43;;;2.70;;
38332;SDS011;25748;46.670;14.272;2023-02-01T17:51:55;10.88;;;2.80;;
38332;SDS011;25748;46.670;14.272;2023-02-01T17:54:21;15.32;;;4.25;;
38332;SDS011;25748;46.670;14.272;2023-02-01T17:56:49;13.40;;;2.73;;
38332;SDS011;25748;46.670;14.272;2023-02-01T17:59:16;15.13;;;3.92;;
38332;SDS011;25748;46.670;14.272;2023-02-01T18:01:42;13.70;;;3.20;;